Time;durP1;ratioP1;P1;durP2;ratioP2;P2;SDS_P1;SDS_P2;PMS_P1;PMS_P2;Temp;Humidity;BMP_temperature;BMP_pressure;BME280_temperature;BME280_humidity;BME280_pressure;Samples;Min_cycle;Max_cycle;Signal;HPM_P1;HPM_P2
2023/08/28 00:02:14;;;;;;;0.20;0.20;;;;;;;;;;6242472;23;20092;-88
2023/08/28 00:04:41;;;;;;;0.20;0.20;;;;;;;;;;6217694;23;20016;-89
2023/08/28 00:07:07;;;;;;;0.20;0.20;;;;;;;;;;6217885;23;20050;-88
2023/08/28 00:09:37;;;;;;;0.30;0.30;;;;;;;;;;6241980;23;20050;-87
2023/08/28 00:12:03;;;;;;;0.30;0.30;;;;;;;;;;6216615;23;20056;-87
2023/08/28 00:14:29;;;;;;;0.22;0.22;;;;;;;;;;6216473;23;20050;-88
2023/08/28 00:16:55;;;;;;;0.20;0.20;;;;;;;;;;6216656;23;20028;-88
2023/08/28 00:19:22;;;;;;;0.30;0.30;;;;;;;;;;6241944;23;20493;-87
2023/08/28 00:21:48;;;;;;;0.30;0.30;;;;;;;;;;6214386;23;20099;-88
2023/08/28 00:24:14;;;;;;;0.20;0.20;;;;;;;;;;6214306;23;20040;-88
2023/08/28 00:26:43;;;;;;;0.30;0.30;;;;;;;;;;6215125;23;20088;-89
2023/08/28 00:29:11;;;;;;;0.20;0.20;;;;;;;;;;6214222;23;20012;-86
2023/08/28 00:31:56;;;;;;;0.20;0.20;;;;;;;;;;6243260;23;20011;-85
2023/08/28 00:34:23;;;;;;;0.30;0.30;;;;;;;;;;6213177;23;20091;-87
2023/08/28 00:36:52;;;;;;;0.20;0.20;;;;;;;;;;6241175;23;20008;-87
2023/08/28 00:39:21;;;;;;;0.20;0.20;;;;;;;;;;6214393;23;20016;-88
2023/08/28 00:41:47;;;;;;;0.30;0.30;;;;;;;;;;6213061;23;20031;-89
2023/08/28 00:44:14;;;;;;;0.30;0.30;;;;;;;;;;6215337;23;20037;-87
2023/08/28 00:46:43;;;;;;;0.10;0.10;;;;;;;;;;6216963;23;20012;-88
2023/08/28 00:49:09;;;;;;;0.30;0.30;;;;;;;;;;6215554;23;20008;-88
2023/08/28 00:51:35;;;;;;;0.30;0.30;;;;;;;;;;6191485;23;20020;-89
2023/08/28 00:54:03;;;;;;;0.30;0.30;;;;;;;;;;6214995;23;20051;-88
2023/08/28 00:56:29;;;;;;;0.20;0.20;;;;;;;;;;6216820;23;20012;-89
2023/08/28 00:58:56;;;;;;;0.20;0.20;;;;;;;;;;6243105;23;20049;-88
2023/08/28 01:01:23;;;;;;;0.30;0.30;;;;;;;;;;6215619;23;20020;-88
2023/08/28 01:03:54;;;;;;;0.20;0.20;;;;;;;;;;6217946;23;20446;-88
2023/08/28 01:06:24;;;;;;;0.30;0.30;;;;;;;;;;6216720;23;20072;-87
2023/08/28 01:08:50;;;;;;;0.30;0.30;;;;;;;;;;6216359;23;20087;-88
2023/08/28 01:11:35;;;;;;;0.20;0.20;;;;;;;;;;6217157;23;20439;-88
2023/08/28 01:14:07;;;;;;;0.20;0.20;;;;;;;;;;6219002;23;20068;-87
2023/08/28 01:16:35;;;;;;;0.30;0.30;;;;;;;;;;6218079;23;20016;-88
2023/08/28 01:19:30;;;;;;;0.30;0.30;;;;;;;;;;6242505;23;20016;-86
2023/08/28 01:22:09;;;;;;;0.20;0.20;;;;;;;;;;6236785;23;20015;-88
2023/08/28 01:24:36;;;;;;;0.30;0.30;;;;;;;;;;6214379;23;20023;-87
2023/08/28 01:27:20;;;;;;;0.30;0.30;;;;;;;;;;6243390;23;20026;-89
2023/08/28 01:29:46;;;;;;;0.22;0.22;;;;;;;;;;6215488;23;20050;-89
2023/08/28 01:32:30;;;;;;;0.22;0.22;;;;;;;;;;6216292;23;20063;-88
2023/08/28 01:35:04;;;;;;;0.15;0.15;;;;;;;;;;6241842;23;20016;-87
2023/08/28 01:37:55;;;;;;;0.20;0.20;;;;;;;;;;6217365;23;20020;-88
2023/08/28 01:40:27;;;;;;;0.40;0.40;;;;;;;;;;6269254;23;20018;-87
2023/08/28 01:42:54;;;;;;;0.20;0.20;;;;;;;;;;6216863;23;20059;-87
2023/08/28 01:45:20;;;;;;;0.28;0.28;;;;;;;;;;6217263;23;20004;-88
2023/08/28 01:47:48;;;;;;;0.30;0.30;;;;;;;;;;6216898;23;20074;-88
2023/08/28 01:50:16;;;;;;;0.30;0.30;;;;;;;;;;6217727;23;20020;-87
2023/08/28 01:52:45;;;;;;;0.20;0.20;;;;;;;;;;6243316;23;20020;-86
2023/08/28 01:55:11;;;;;;;0.20;0.20;;;;;;;;;;6216005;23;20018;-86
2023/08/28 01:57:37;;;;;;;0.30;0.30;;;;;;;;;;6214153;23;20092;-86
2023/08/28 02:00:03;;;;;;;0.30;0.30;;;;;;;;;;6216194;23;20000;-87
2023/08/28 02:02:29;;;;;;;0.30;0.30;;;;;;;;;;6217106;23;20039;-88
2023/08/28 02:04:55;;;;;;;0.30;0.30;;;;;;;;;;6217822;23;20023;-87
2023/08/28 02:07:27;;;;;;;0.22;0.22;;;;;;;;;;6219302;23;20069;-87
2023/08/28 02:09:56;;;;;;;0.30;0.30;;;;;;;;;;6216030;23;20428;-88
2023/08/28 02:12:22;;;;;;;0.20;0.20;;;;;;;;;;6217504;23;20020;-87
2023/08/28 02:15:00;;;;;;;0.20;0.20;;;;;;;;;;6268174;23;20024;-87
2023/08/28 02:17:26;;;;;;;0.30;0.30;;;;;;;;;;6217475;23;20022;-89
2023/08/28 02:19:55;;;;;;;0.15;0.15;;;;;;;;;;6243196;23;19999;-88
2023/08/28 02:22:22;;;;;;;0.20;0.20;;;;;;;;;;6217093;22;20028;-88
2023/08/28 02:24:58;;;;;;;0.20;0.20;;;;;;;;;;6217483;23;20004;-88
2023/08/28 02:27:36;;;;;;;0.30;0.30;;;;;;;;;;6241884;23;20016;-88
2023/08/28 02:30:09;;;;;;;0.30;0.30;;;;;;;;;;6216881;23;20016;-89
2023/08/28 02:32:35;;;;;;;0.28;0.28;;;;;;;;;;6216881;23;20016;-88
2023/08/28 02:35:01;;;;;;;0.28;0.28;;;;;;;;;;6214227;23;20095;-87
2023/08/28 02:37:27;;;;;;;0.20;0.20;;;;;;;;;;6234859;23;20020;-87
2023/08/28 02:39:55;;;;;;;0.30;0.30;;;;;;;;;;6217213;23;20040;-88
2023/08/28 02:42:21;;;;;;;0.30;0.30;;;;;;;;;;6214467;23;20131;-87
2023/08/28 02:44:50;;;;;;;0.30;0.30;;;;;;;;;;6216537;23;20012;-90
2023/08/28 02:47:16;;;;;;;0.20;0.20;;;;;;;;;;6217599;23;20068;-90
2023/08/28 02:49:42;;;;;;;0.30;0.30;;;;;;;;;;6215665;23;20004;-87
2023/08/28 02:52:12;;;;;;;0.25;0.25;;;;;;;;;;6214166;23;20020;-89
2023/08/28 02:54:43;;;;;;;0.30;0.30;;;;;;;;;;6214106;23;20016;-86
2023/08/28 02:57:21;;;;;;;0.20;0.20;;;;;;;;;;6239009;23;20038;-87
2023/08/28 02:59:47;;;;;;;0.20;0.20;;;;;;;;;;6218788;23;20027;-84
2023/08/28 03:02:16;;;;;;;0.30;0.30;;;;;;;;;;6214827;23;20020;-86
2023/08/28 03:04:43;;;;;;;0.20;0.20;;;;;;;;;;6243749;23;20016;-91
2023/08/28 03:07:10;;;;;;;0.20;0.20;;;;;;;;;;6242622;23;20443;-89
2023/08/28 03:09:36;;;;;;;0.30;0.30;;;;;;;;;;6214399;23;20072;-88
2023/08/28 03:12:03;;;;;;;0.20;0.20;;;;;;;;;;6217969;23;20020;-88
2023/08/28 03:14:33;;;;;;;0.30;0.30;;;;;;;;;;6216850;23;20009;-87
2023/08/28 03:17:03;;;;;;;0.22;0.22;;;;;;;;;;6215486;23;20012;-87
2023/08/28 03:19:38;;;;;;;0.20;0.20;;;;;;;;;;6215804;23;20023;-87
2023/08/28 03:22:05;;;;;;;0.30;0.30;;;;;;;;;;6240035;23;20012;-88
2023/08/28 03:24:37;;;;;;;0.22;0.22;;;;;;;;;;6213733;23;20012;-87
2023/08/28 03:27:10;;;;;;;0.30;0.30;;;;;;;;;;6216375;23;20095;-86
2023/08/28 03:29:55;;;;;;;0.20;0.20;;;;;;;;;;6244995;23;20092;-88
2023/08/28 03:32:32;;;;;;;0.20;0.20;;;;;;;;;;6238064;23;20019;-86
2023/08/28 03:34:59;;;;;;;0.20;0.20;;;;;;;;;;6212902;23;20020;-86
2023/08/28 03:37:26;;;;;;;0.30;0.30;;;;;;;;;;6214214;23;20379;-87
2023/08/28 03:39:57;;;;;;;0.28;0.28;;;;;;;;;;6213915;23;20047;-87
2023/08/28 03:42:31;;;;;;;0.20;0.20;;;;;;;;;;6216956;23;20016;-86
2023/08/28 03:45:21;;;;;;;0.30;0.30;;;;;;;;;;6238039;23;20359;-87
2023/08/28 03:48:04;;;;;;;0.25;0.25;;;;;;;;;;6215520;23;20024;-88
2023/08/28 03:50:36;;;;;;;0.30;0.30;;;;;;;;;;6217017;23;20020;-87
2023/08/28 03:53:11;;;;;;;0.20;0.20;;;;;;;;;;6219775;23;20388;-85
2023/08/28 03:55:44;;;;;;;0.30;0.30;;;;;;;;;;6238407;23;20016;-87
2023/08/28 03:58:24;;;;;;;0.25;0.25;;;;;;;;;;6214664;23;20059;-87
2023/08/28 04:00:54;;;;;;;0.28;0.28;;;;;;;;;;6236173;23;20043;-86
2023/08/28 04:03:20;;;;;;;0.30;0.30;;;;;;;;;;6214638;23;20028;-87
2023/08/28 04:05:48;;;;;;;0.20;0.20;;;;;;;;;;6214802;23;20012;-86
2023/08/28 04:08:15;;;;;;;0.20;0.20;;;;;;;;;;6215478;23;20016;-88
2023/08/28 04:10:44;;;;;;;0.30;0.30;;;;;;;;;;6214810;23;20021;-88
2023/08/28 04:13:11;;;;;;;0.30;0.30;;;;;;;;;;6236432;23;20043;-88
2023/08/28 04:15:41;;;;;;;0.22;0.22;;;;;;;;;;6193292;23;20020;-89
2023/08/28 04:18:10;;;;;;;0.20;0.20;;;;;;;;;;6194313;23;20020;-89
2023/08/28 04:20:42;;;;;;;0.20;0.20;;;;;;;;;;6218461;23;20039;-87
2023/08/28 04:23:13;;;;;;;0.28;0.28;;;;;;;;;;6216721;23;20012;-89
2023/08/28 04:26:18;;;;;;;0.30;0.30;;;;;;;;;;6238855;23;20039;-87
2023/08/28 04:29:08;;;;;;;0.30;0.30;;;;;;;;;;6215945;23;20035;-88
2023/08/28 04:31:38;;;;;;;0.22;0.22;;;;;;;;;;6242017;23;20024;-88
2023/08/28 04:34:04;;;;;;;0.20;0.20;;;;;;;;;;6216290;23;20024;-89
2023/08/28 04:36:35;;;;;;;0.30;0.30;;;;;;;;;;6189516;23;20016;-86
2023/08/28 04:39:06;;;;;;;0.30;0.30;;;;;;;;;;6214471;23;20016;-87
2023/08/28 04:41:33;;;;;;;0.28;0.28;;;;;;;;;;6214403;23;20020;-87
2023/08/28 04:44:01;;;;;;;0.30;0.30;;;;;;;;;;6213901;23;20020;-85
2023/08/28 04:46:28;;;;;;;0.30;0.30;;;;;;;;;;6215361;23;20020;-88
2023/08/28 04:48:55;;;;;;;0.30;0.30;;;;;;;;;;6216031;23;20016;-87
2023/08/28 04:51:26;;;;;;;0.20;0.20;;;;;;;;;;6243671;23;20017;-87
2023/08/28 04:53:53;;;;;;;0.30;0.30;;;;;;;;;;6214744;23;20012;-88
2023/08/28 04:56:19;;;;;;;0.30;0.30;;;;;;;;;;6215180;23;20039;-87
2023/08/28 04:58:45;;;;;;;0.30;0.30;;;;;;;;;;6189988;23;20045;-87
2023/08/28 05:01:33;;;;;;;0.28;0.28;;;;;;;;;;6216266;23;20039;-88
2023/08/28 05:03:59;;;;;;;0.20;0.20;;;;;;;;;;6218237;23;20034;-87
2023/08/28 05:06:25;;;;;;;0.20;0.20;;;;;;;;;;6240963;23;20007;-87
2023/08/28 05:08:51;;;;;;;0.20;0.20;;;;;;;;;;6217377;23;20016;-88
2023/08/28 05:11:20;;;;;;;0.30;0.30;;;;;;;;;;6216449;23;20050;-84
2023/08/28 05:13:46;;;;;;;0.20;0.20;;;;;;;;;;6216816;23;20016;-87
2023/08/28 05:16:16;;;;;;;0.20;0.20;;;;;;;;;;6216323;23;20020;-88
2023/08/28 05:18:42;;;;;;;0.30;0.30;;;;;;;;;;6242003;23;20021;-87
2023/08/28 05:21:13;;;;;;;0.30;0.30;;;;;;;;;;6217275;23;20023;-89
2023/08/28 05:23:44;;;;;;;0.22;0.22;;;;;;;;;;6214358;23;20043;-87
2023/08/28 05:26:10;;;;;;;0.30;0.30;;;;;;;;;;6215986;23;20016;-88
2023/08/28 05:28:38;;;;;;;0.20;0.20;;;;;;;;;;6241905;23;20030;-87
2023/08/28 05:31:06;;;;;;;0.40;0.40;;;;;;;;;;6216359;23;20367;-87
2023/08/28 05:33:36;;;;;;;0.30;0.30;;;;;;;;;;6215236;23;20111;-87
2023/08/28 05:36:03;;;;;;;0.30;0.30;;;;;;;;;;6243105;23;20008;-87
2023/08/28 05:38:31;;;;;;;0.30;0.30;;;;;;;;;;6216676;23;20031;-89
2023/08/28 05:40:57;;;;;;;0.25;0.25;;;;;;;;;;6216955;23;20043;-87
2023/08/28 05:43:24;;;;;;;0.20;0.20;;;;;;;;;;6241069;23;20027;-88
2023/08/28 05:45:50;;;;;;;0.20;0.20;;;;;;;;;;6218791;23;20004;-88
2023/08/28 05:48:21;;;;;;;0.20;0.20;;;;;;;;;;6217714;23;20016;-87
2023/08/28 05:50:50;;;;;;;0.40;0.40;;;;;;;;;;6215190;23;20000;-89
2023/08/28 05:53:24;;;;;;;0.32;0.32;;;;;;;;;;6238062;23;20087;-89
2023/08/28 05:55:50;;;;;;;0.32;0.32;;;;;;;;;;6216878;23;20466;-88
2023/08/28 05:58:17;;;;;;;0.30;0.30;;;;;;;;;;6217312;23;20020;-87
2023/08/28 06:00:46;;;;;;;0.20;0.20;;;;;;;;;;6217291;23;20012;-92
2023/08/28 06:03:16;;;;;;;0.30;0.30;;;;;;;;;;6243591;23;20016;-87
2023/08/28 06:05:42;;;;;;;0.32;0.32;;;;;;;;;;6215858;23;20146;-89
2023/08/28 06:08:09;;;;;;;0.30;0.30;;;;;;;;;;6217750;23;20372;-88
2023/08/28 06:10:38;;;;;;;0.20;0.20;;;;;;;;;;6237576;23;20068;-87
2023/08/28 06:16:27;;;;;;;0.30;0.30;;;;;;;;;;6243951;23;20055;-87
2023/08/28 06:19:28;;;;;;;0.25;0.25;;;;;;;;;;6263909;23;20020;-88
2023/08/28 06:21:57;;;;;;;0.20;0.20;;;;;;;;;;6215702;23;20012;-88
2023/08/28 06:24:26;;;;;;;0.30;0.30;;;;;;;;;;6263535;23;20348;-89
2023/08/28 06:26:52;;;;;;;0.30;0.30;;;;;;;;;;6217604;23;20036;-88
2023/08/28 06:29:25;;;;;;;0.30;0.30;;;;;;;;;;6216593;23;20020;-87
2023/08/28 06:32:26;;;;;;;0.20;0.20;;;;;;;;;;6240144;23;20016;-87
2023/08/28 06:34:52;;;;;;;0.30;0.30;;;;;;;;;;6214423;23;20020;-88
2023/08/28 06:37:19;;;;;;;0.20;0.20;;;;;;;;;;6216839;23;20023;-87
2023/08/28 06:39:51;;;;;;;0.20;0.20;;;;;;;;;;6216496;23;20008;-86
2023/08/28 06:42:50;;;;;;;0.30;0.30;;;;;;;;;;6193970;23;20242;-88
2023/08/28 06:45:16;;;;;;;0.30;0.30;;;;;;;;;;6218275;23;20050;-88
2023/08/28 06:47:42;;;;;;;0.35;0.35;;;;;;;;;;6191572;23;20023;-89
2023/08/28 06:50:08;;;;;;;0.30;0.30;;;;;;;;;;6215843;23;20027;-86
2023/08/28 06:52:41;;;;;;;0.30;0.30;;;;;;;;;;6192521;23;20000;-88
2023/08/28 06:55:07;;;;;;;0.30;0.30;;;;;;;;;;6239299;23;20043;-89
2023/08/28 06:57:35;;;;;;;0.28;0.28;;;;;;;;;;6217000;23;20016;-88
2023/08/28 07:00:02;;;;;;;0.30;0.30;;;;;;;;;;6217120;23;20039;-89
2023/08/28 07:02:31;;;;;;;0.20;0.20;;;;;;;;;;6215046;23;20072;-88
2023/08/28 07:05:18;;;;;;;0.30;0.30;;;;;;;;;;6214364;23;20075;-89
2023/08/28 07:11:18;;;;;;;0.40;0.40;;;;;;;;;;6150311;23;20029;-88
2023/08/28 07:13:51;;;;;;;0.20;0.20;;;;;;;;;;6209352;23;20016;-88
2023/08/28 07:16:27;;;;;;;0.35;0.35;;;;;;;;;;6267153;23;20072;-88
2023/08/28 07:19:04;;;;;;;0.15;0.15;;;;;;;;;;6244115;23;20020;-88
2023/08/28 07:21:37;;;;;;;0.20;0.20;;;;;;;;;;6218309;23;20066;-88
2023/08/28 07:27:28;;;;;;;0.20;0.20;;;;;;;;;;6241784;23;20101;-88
2023/08/28 07:29:56;;;;;;;0.30;0.30;;;;;;;;;;6220615;23;20016;-89
2023/08/28 07:32:26;;;;;;;0.20;0.20;;;;;;;;;;6271458;23;20071;-89
2023/08/28 07:34:55;;;;;;;0.15;0.15;;;;;;;;;;6191973;23;20024;-89
2023/08/28 07:37:24;;;;;;;0.20;0.20;;;;;;;;;;6243973;23;20077;-89
2023/08/28 07:39:53;;;;;;;0.30;0.30;;;;;;;;;;6218855;23;20415;-88
2023/08/28 07:42:29;;;;;;;0.22;0.22;;;;;;;;;;6245572;23;20031;-87
2023/08/28 07:44:56;;;;;;;0.35;0.35;;;;;;;;;;6217923;23;20024;-88
2023/08/28 07:47:31;;;;;;;0.20;0.20;;;;;;;;;;6221552;23;20023;-88
2023/08/28 07:50:01;;;;;;;0.30;0.30;;;;;;;;;;6243805;23;20019;-88
2023/08/28 07:52:41;;;;;;;0.30;0.30;;;;;;;;;;6245279;23;20019;-88
2023/08/28 07:55:07;;;;;;;0.20;0.20;;;;;;;;;;6216774;23;20466;-89
2023/08/28 07:57:37;;;;;;;0.30;0.30;;;;;;;;;;6218687;23;20059;-89
2023/08/28 08:02:53;;;;;;;0.30;0.30;;;;;;;;;;6242060;23;20035;-89
2023/08/28 08:05:20;;;;;;;0.10;0.10;;;;;;;;;;6218287;23;20023;-87
2023/08/28 08:07:55;;;;;;;0.30;0.30;;;;;;;;;;6217099;23;20020;-87
2023/08/28 08:10:21;;;;;;;0.20;0.20;;;;;;;;;;6216279;23;20026;-88
2023/08/28 08:12:47;;;;;;;0.20;0.20;;;;;;;;;;6217460;23;20023;-89
2023/08/28 08:15:14;;;;;;;0.22;0.22;;;;;;;;;;6217715;23;20056;-88
2023/08/28 08:18:12;;;;;;;0.10;0.10;;;;;;;;;;6216340;23;20071;-89
2023/08/28 08:20:38;;;;;;;0.50;0.50;;;;;;;;;;6217145;23;20031;-88
2023/08/28 08:23:04;;;;;;;0.30;0.30;;;;;;;;;;6214716;23;20451;-88
2023/08/28 08:25:30;;;;;;;0.10;0.10;;;;;;;;;;6216207;23;20016;-88
2023/08/28 08:28:03;;;;;;;0.13;0.13;;;;;;;;;;6215683;23;20027;-88
2023/08/28 08:30:33;;;;;;;0.10;0.10;;;;;;;;;;6240552;23;20020;-87
2023/08/28 08:32:59;;;;;;;0.20;0.20;;;;;;;;;;6214518;23;20091;-86
2023/08/28 08:35:26;;;;;;;0.10;0.10;;;;;;;;;;6212134;23;20020;-87
2023/08/28 08:37:56;;;;;;;0.20;0.20;;;;;;;;;;6206835;23;20012;-87
2023/08/28 08:40:40;;;;;;;0.22;0.22;;;;;;;;;;6237968;23;20055;-88
2023/08/28 08:43:08;;;;;;;0.03;0.03;;;;;;;;;;6215993;23;20088;-87
2023/08/28 08:45:37;;;;;;;0.20;0.20;;;;;;;;;;6213823;23;20016;-87
2023/08/28 08:48:08;;;;;;;0.20;0.20;;;;;;;;;;6240881;23;20043;-88
2023/08/28 08:50:56;;;;;;;0.20;0.20;;;;;;;;;;6240457;23;20023;-87
2023/08/28 08:53:42;;;;;;;0.10;0.10;;;;;;;;;;6214196;23;20028;-87
2023/08/28 08:56:11;;;;;;;0.13;0.13;;;;;;;;;;6236413;23;20030;-85
2023/08/28 08:58:40;;;;;;;0.20;0.20;;;;;;;;;;6237917;23;20016;-85
2023/08/28 09:01:07;;;;;;;0.20;0.20;;;;;;;;;;6236606;23;20012;-85
2023/08/28 09:03:40;;;;;;;0.20;0.20;;;;;;;;;;6210426;23;20016;-84
2023/08/28 09:06:29;;;;;;;0.10;0.10;;;;;;;;;;6210415;23;20016;-84
2023/08/28 09:08:57;;;;;;;0.20;0.20;;;;;;;;;;6209238;23;20067;-86
2023/08/28 09:11:23;;;;;;;0.20;0.20;;;;;;;;;;6236254;23;20067;-87
2023/08/28 09:13:51;;;;;;;0.20;0.20;;;;;;;;;;6236360;23;20020;-87
2023/08/28 09:16:21;;;;;;;0.10;0.10;;;;;;;;;;6212030;23;20072;-88
2023/08/28 09:18:50;;;;;;;0.10;0.10;;;;;;;;;;6212790;23;20048;-86
2023/08/28 09:21:18;;;;;;;0.10;0.10;;;;;;;;;;6211468;23;20631;-85
2023/08/28 09:23:45;;;;;;;0.20;0.20;;;;;;;;;;6185940;23;20016;-86
2023/08/28 09:26:15;;;;;;;0.10;0.10;;;;;;;;;;6211355;23;20016;-85
2023/08/28 09:28:43;;;;;;;0.10;0.10;;;;;;;;;;6187617;23;20020;-86
2023/08/28 09:31:11;;;;;;;0.17;0.17;;;;;;;;;;6208688;23;20056;-86
2023/08/28 09:33:44;;;;;;;0.20;0.20;;;;;;;;;;6210595;23;20031;-85
2023/08/28 09:36:19;;;;;;;0.25;0.25;;;;;;;;;;6236720;23;20105;-86
2023/08/28 09:38:46;;;;;;;0.30;0.30;;;;;;;;;;6212462;23;20063;-86
2023/08/28 09:41:12;;;;;;;0.20;0.20;;;;;;;;;;6210880;23;20016;-87
2023/08/28 09:43:39;;;;;;;0.20;0.20;;;;;;;;;;6210518;23;20003;-85
2023/08/28 09:46:06;;;;;;;0.20;0.20;;;;;;;;;;6186578;23;20016;-87
2023/08/28 09:48:33;;;;;;;0.15;0.15;;;;;;;;;;6236055;23;20023;-86
2023/08/28 09:51:12;;;;;;;0.20;0.20;;;;;;;;;;6211044;23;20065;-84
2023/08/28 09:53:40;;;;;;;0.20;0.20;;;;;;;;;;6210818;23;20056;-86
2023/08/28 09:56:06;;;;;;;0.20;0.20;;;;;;;;;;6236211;23;20020;-86
2023/08/28 09:58:36;;;;;;;0.10;0.10;;;;;;;;;;6210995;23;20095;-85
2023/08/28 10:01:02;;;;;;;0.10;0.10;;;;;;;;;;6210251;23;20012;-86
2023/08/28 10:03:29;;;;;;;0.20;0.20;;;;;;;;;;6237349;23;20645;-86
2023/08/28 10:06:02;;;;;;;0.20;0.20;;;;;;;;;;6187093;23;20019;-86
2023/08/28 10:08:31;;;;;;;0.30;0.30;;;;;;;;;;6211835;23;20004;-86
2023/08/28 10:10:57;;;;;;;0.10;0.10;;;;;;;;;;6236007;23;20027;-86
2023/08/28 10:13:24;;;;;;;0.20;0.20;;;;;;;;;;6212234;23;20162;-87
2023/08/28 10:15:53;;;;;;;0.10;0.10;;;;;;;;;;6238035;23;20020;-86
2023/08/28 10:18:30;;;;;;;0.32;0.32;;;;;;;;;;6211210;23;20017;-83
2023/08/28 10:20:57;;;;;;;0.10;0.10;;;;;;;;;;6211161;23;20063;-83
2023/08/28 10:23:23;;;;;;;0.20;0.20;;;;;;;;;;6235999;23;20060;-83
2023/08/28 10:25:53;;;;;;;0.17;0.17;;;;;;;;;;6207336;23;20016;-84
2023/08/28 10:28:21;;;;;;;0.20;0.20;;;;;;;;;;6211059;23;20066;-83
2023/08/28 10:30:49;;;;;;;0.10;0.10;;;;;;;;;;6210226;23;20039;-83
2023/08/28 10:33:15;;;;;;;0.20;0.20;;;;;;;;;;6208341;23;20504;-84
2023/08/28 10:35:42;;;;;;;0.03;0.03;;;;;;;;;;6208350;23;20068;-84
2023/08/28 10:38:11;;;;;;;0.00;0.00;;;;;;;;;;6235836;23;20028;-85
2023/08/28 10:40:37;;;;;;;0.15;0.15;;;;;;;;;;6211910;23;20012;-84
2023/08/28 10:43:07;;;;;;;0.15;0.15;;;;;;;;;;6236153;23;20019;-84
2023/08/28 10:45:36;;;;;;;0.20;0.20;;;;;;;;;;6210961;23;20024;-85
2023/08/28 10:48:12;;;;;;;0.00;0.00;;;;;;;;;;6214945;23;20350;-83
2023/08/28 10:50:39;;;;;;;0.20;0.20;;;;;;;;;;6212614;23;20026;-83
2023/08/28 10:53:05;;;;;;;0.10;0.10;;;;;;;;;;6210645;23;20508;-85
2023/08/28 10:55:52;;;;;;;0.10;0.10;;;;;;;;;;6186322;23;20358;-83
2023/08/28 10:58:18;;;;;;;0.00;0.00;;;;;;;;;;6209447;23;20020;-85
2023/08/28 11:00:45;;;;;;;0.20;0.20;;;;;;;;;;6209115;23;20012;-84
2023/08/28 11:03:15;;;;;;;0.10;0.10;;;;;;;;;;6211843;23;20012;-84
2023/08/28 11:05:43;;;;;;;0.20;0.20;;;;;;;;;;6237036;23;20016;-84
2023/08/28 11:08:11;;;;;;;0.10;0.10;;;;;;;;;;6211829;23;20024;-86
2023/08/28 11:10:38;;;;;;;0.20;0.20;;;;;;;;;;6209932;23;20020;-84
2023/08/28 11:13:08;;;;;;;0.10;0.10;;;;;;;;;;6209313;23;20020;-84
2023/08/28 11:15:42;;;;;;;0.20;0.20;;;;;;;;;;6209910;23;20016;-83
2023/08/28 11:18:20;;;;;;;0.15;0.15;;;;;;;;;;6207816;23;20020;-84
2023/08/28 11:20:48;;;;;;;0.10;0.10;;;;;;;;;;6207886;23;20016;-84
2023/08/28 11:23:24;;;;;;;0.15;0.15;;;;;;;;;;6237618;23;20012;-84
2023/08/28 11:25:52;;;;;;;0.10;0.10;;;;;;;;;;6233798;23;20063;-82
2023/08/28 11:28:25;;;;;;;0.10;0.10;;;;;;;;;;6212721;23;20024;-84
2023/08/28 11:30:52;;;;;;;0.08;0.08;;;;;;;;;;6212065;23;20347;-84
2023/08/28 11:33:19;;;;;;;0.20;0.20;;;;;;;;;;6209195;23;20016;-82
2023/08/28 11:35:55;;;;;;;0.20;0.20;;;;;;;;;;6232887;23;20105;-84
2023/08/28 11:38:24;;;;;;;0.05;0.05;;;;;;;;;;6210920;23;20044;-83
2023/08/28 11:40:53;;;;;;;0.17;0.17;;;;;;;;;;6208728;23;20016;-84
2023/08/28 11:43:23;;;;;;;0.20;0.20;;;;;;;;;;6233318;23;20042;-83
2023/08/28 11:45:55;;;;;;;0.10;0.10;;;;;;;;;;6208590;23;20016;-81
2023/08/28 11:48:21;;;;;;;0.03;0.03;;;;;;;;;;6232840;23;20016;-83
2023/08/28 11:50:57;;;;;;;0.10;0.10;;;;;;;;;;6236128;23;20020;-85
2023/08/28 11:53:41;;;;;;;0.20;0.20;;;;;;;;;;6208688;23;20004;-83
2023/08/28 11:56:08;;;;;;;0.10;0.10;;;;;;;;;;6208481;23;20447;-83
2023/08/28 11:58:34;;;;;;;0.10;0.10;;;;;;;;;;6207006;23;20027;-83
2023/08/28 12:01:13;;;;;;;0.20;0.20;;;;;;;;;;6231957;23;20083;-82
2023/08/28 12:03:43;;;;;;;0.10;0.10;;;;;;;;;;6210112;23;20044;-82
2023/08/28 12:06:14;;;;;;;0.15;0.15;;;;;;;;;;6183930;23;20067;-82
2023/08/28 12:08:47;;;;;;;0.10;0.10;;;;;;;;;;6208018;23;20027;-84
2023/08/28 12:11:13;;;;;;;0.10;0.10;;;;;;;;;;6208363;23;20020;-84
2023/08/28 12:13:40;;;;;;;0.10;0.10;;;;;;;;;;6210466;23;20027;-84
2023/08/28 12:16:19;;;;;;;0.10;0.10;;;;;;;;;;6234289;23;20020;-83
2023/08/28 12:18:50;;;;;;;0.10;0.10;;;;;;;;;;6210084;23;20016;-85
2023/08/28 12:21:35;;;;;;;0.20;0.20;;;;;;;;;;6234065;23;20012;-84
2023/08/28 12:24:06;;;;;;;0.10;0.10;;;;;;;;;;6234496;23;20017;-84
2023/08/28 12:26:36;;;;;;;0.15;0.15;;;;;;;;;;6210859;23;20012;-84
2023/08/28 12:29:04;;;;;;;0.10;0.10;;;;;;;;;;6235165;23;20052;-82
2023/08/28 12:31:36;;;;;;;0.10;0.10;;;;;;;;;;6185702;23;20058;-85
2023/08/28 12:34:12;;;;;;;0.00;0.00;;;;;;;;;;6210658;23;20016;-84
2023/08/28 12:36:39;;;;;;;0.10;0.10;;;;;;;;;;6211046;23;20491;-84
2023/08/28 12:39:06;;;;;;;0.20;0.20;;;;;;;;;;6235720;23;20016;-83
2023/08/28 12:41:48;;;;;;;0.00;0.00;;;;;;;;;;6236320;23;20027;-83
2023/08/28 12:44:16;;;;;;;0.10;0.10;;;;;;;;;;6210367;23;20084;-84
2023/08/28 12:46:43;;;;;;;0.20;0.20;;;;;;;;;;6185536;23;20016;-84
2023/08/28 12:49:11;;;;;;;0.10;0.10;;;;;;;;;;6209683;23;20058;-83
2023/08/28 12:51:38;;;;;;;0.10;0.10;;;;;;;;;;6209169;23;20020;-84
2023/08/28 12:54:06;;;;;;;0.08;0.08;;;;;;;;;;6235040;23;20347;-84
2023/08/28 12:56:34;;;;;;;0.10;0.10;;;;;;;;;;6236326;23;20020;-83
2023/08/28 12:59:03;;;;;;;0.10;0.10;;;;;;;;;;6236089;23;20020;-84
2023/08/28 13:01:29;;;;;;;0.00;0.00;;;;;;;;;;6234973;23;20504;-85
2023/08/28 13:03:55;;;;;;;0.20;0.20;;;;;;;;;;6210888;23;20016;-83
2023/08/28 13:06:22;;;;;;;0.20;0.20;;;;;;;;;;6210256;23;20040;-84
2023/08/28 13:08:49;;;;;;;0.20;0.20;;;;;;;;;;6210656;23;20019;-84
2023/08/28 13:11:29;;;;;;;0.10;0.10;;;;;;;;;;6210451;23;20020;-83
2023/08/28 13:13:58;;;;;;;0.20;0.20;;;;;;;;;;6211643;23;20016;-83
2023/08/28 13:16:28;;;;;;;0.20;0.20;;;;;;;;;;6236123;23;20217;-84
2023/08/28 13:18:55;;;;;;;0.10;0.10;;;;;;;;;;6262692;23;20067;-83
2023/08/28 13:21:21;;;;;;;0.20;0.20;;;;;;;;;;6209594;23;20070;-83
2023/08/28 13:23:48;;;;;;;0.10;0.10;;;;;;;;;;6232871;23;20016;-84
2023/08/28 13:26:14;;;;;;;0.10;0.10;;;;;;;;;;6185305;23;20051;-82
2023/08/28 13:28:41;;;;;;;0.17;0.17;;;;;;;;;;6209595;23;20068;-81
2023/08/28 13:31:08;;;;;;;0.20;0.20;;;;;;;;;;6208980;23;20051;-83
2023/08/28 13:33:34;;;;;;;0.17;0.17;;;;;;;;;;6209905;23;20028;-82
2023/08/28 13:36:06;;;;;;;0.10;0.10;;;;;;;;;;6262278;23;20012;-84
2023/08/28 13:38:35;;;;;;;0.17;0.17;;;;;;;;;;6235769;23;20038;-84
2023/08/28 13:41:02;;;;;;;0.20;0.20;;;;;;;;;;6236068;23;20009;-83
2023/08/28 13:43:29;;;;;;;0.13;0.13;;;;;;;;;;6209871;23;20016;-84
2023/08/28 13:45:57;;;;;;;0.20;0.20;;;;;;;;;;6186329;23;20012;-82
2023/08/28 13:48:24;;;;;;;0.10;0.10;;;;;;;;;;6236478;23;20510;-84
2023/08/28 13:50:51;;;;;;;0.22;0.22;;;;;;;;;;6209990;23;20020;-84
2023/08/28 13:53:18;;;;;;;0.10;0.10;;;;;;;;;;6233892;23;20016;-84
2023/08/28 13:55:46;;;;;;;0.10;0.10;;;;;;;;;;6185048;23;20044;-82
2023/08/28 13:58:14;;;;;;;0.10;0.10;;;;;;;;;;6235728;23;20016;-83
2023/08/28 14:00:40;;;;;;;0.00;0.00;;;;;;;;;;6185896;23;20016;-84
2023/08/28 14:03:07;;;;;;;0.20;0.20;;;;;;;;;;6209831;23;20012;-82
2023/08/28 14:05:33;;;;;;;0.10;0.10;;;;;;;;;;6209723;23;20115;-84
2023/08/28 14:07:59;;;;;;;0.10;0.10;;;;;;;;;;6236521;23;20050;-83
2023/08/28 14:10:25;;;;;;;0.20;0.20;;;;;;;;;;6210707;23;20020;-84
2023/08/28 14:12:51;;;;;;;0.20;0.20;;;;;;;;;;6210714;23;20055;-82
2023/08/28 14:15:20;;;;;;;0.03;0.03;;;;;;;;;;6211769;23;20027;-83
2023/08/28 14:17:47;;;;;;;0.10;0.10;;;;;;;;;;6235587;23;20016;-84
2023/08/28 14:20:13;;;;;;;0.10;0.10;;;;;;;;;;6236077;23;20023;-83
2023/08/28 14:22:40;;;;;;;0.10;0.10;;;;;;;;;;6211923;23;20016;-83
2023/08/28 14:25:06;;;;;;;0.10;0.10;;;;;;;;;;6209133;23;20398;-83
2023/08/28 14:27:37;;;;;;;0.00;0.00;;;;;;;;;;6237481;23;20012;-83
2023/08/28 14:30:07;;;;;;;0.10;0.10;;;;;;;;;;6209574;23;20020;-81
2023/08/28 14:32:33;;;;;;;0.10;0.10;;;;;;;;;;6209140;23;20032;-85
2023/08/28 14:35:04;;;;;;;0.10;0.10;;;;;;;;;;6235268;23;20023;-82
2023/08/28 14:37:30;;;;;;;0.10;0.10;;;;;;;;;;6202184;23;20027;-83
2023/08/28 14:39:57;;;;;;;0.00;0.00;;;;;;;;;;6232705;23;20064;-84
2023/08/28 14:42:23;;;;;;;0.10;0.10;;;;;;;;;;6212937;23;20016;-83
2023/08/28 14:44:54;;;;;;;0.10;0.10;;;;;;;;;;6185748;23;20024;-82
2023/08/28 14:47:20;;;;;;;0.22;0.22;;;;;;;;;;6211132;23;20027;-83
2023/08/28 14:49:46;;;;;;;0.10;0.10;;;;;;;;;;6210658;23;20022;-84
2023/08/28 14:52:12;;;;;;;0.13;0.13;;;;;;;;;;6236092;23;20016;-83
2023/08/28 14:54:39;;;;;;;0.20;0.20;;;;;;;;;;6209262;23;20091;-84
2023/08/28 14:57:05;;;;;;;0.10;0.10;;;;;;;;;;6209270;23;20052;-83
2023/08/28 14:59:35;;;;;;;0.20;0.20;;;;;;;;;;6211020;23;20018;-82
2023/08/28 15:02:02;;;;;;;0.00;0.00;;;;;;;;;;6207496;23;20016;-84
2023/08/28 15:04:28;;;;;;;0.10;0.10;;;;;;;;;;6186884;23;20016;-83
2023/08/28 15:06:57;;;;;;;0.20;0.20;;;;;;;;;;6236677;23;20043;-83
2023/08/28 15:09:25;;;;;;;0.10;0.10;;;;;;;;;;6261705;23;20020;-84
2023/08/28 15:11:58;;;;;;;0.20;0.20;;;;;;;;;;6212206;23;20034;-85
2023/08/28 15:14:29;;;;;;;0.10;0.10;;;;;;;;;;6187154;23;20027;-84